createdAt,value
2017-08-09T00:02:23.149Z,20.20
2017-08-09T00:04:50.723Z,20.20
2017-08-09T00:07:18.274Z,20.10
2017-08-09T00:09:45.878Z,20.00
2017-08-09T00:12:13.422Z,20.00
2017-08-09T00:14:41.004Z,19.90
2017-08-09T00:17:08.573Z,19.90
2017-08-09T00:19:36.896Z,19.70
2017-08-09T00:22:04.450Z,19.70
2017-08-09T00:24:32.025Z,19.60
2017-08-09T00:26:59.616Z,19.60
2017-08-09T00:29:27.168Z,19.50
2017-08-09T00:31:54.848Z,19.40
2017-08-09T00:34:23.151Z,19.30
2017-08-09T00:36:50.721Z,19.30
2017-08-09T00:39:18.300Z,19.20
2017-08-09T00:41:45.867Z,19.00
2017-08-09T00:44:13.378Z,18.90
2017-08-09T00:46:40.938Z,18.80
2017-08-09T00:49:08.453Z,18.50
2017-08-09T00:51:36.070Z,18.40
2017-08-09T00:54:03.690Z,18.30
2017-08-09T00:56:31.257Z,18.30
2017-08-09T00:58:59.554Z,18.20
2017-08-09T01:01:27.139Z,18.20
2017-08-09T01:03:54.671Z,18.10
2017-08-09T01:06:22.181Z,18.20
2017-08-09T01:08:49.783Z,18.20
2017-08-09T01:11:18.125Z,18.20
2017-08-09T01:13:45.653Z,18.20
2017-08-09T01:16:13.278Z,18.10
2017-08-09T01:18:40.834Z,17.90
2017-08-09T01:21:09.105Z,17.80
2017-08-09T01:23:36.720Z,17.80
2017-08-09T01:26:04.245Z,17.80
2017-08-09T01:28:31.756Z,17.70
2017-08-09T01:30:59.382Z,17.70
2017-08-09T01:33:26.938Z,17.60
2017-08-09T01:35:54.519Z,17.60
2017-08-09T01:38:22.075Z,17.60
2017-08-09T01:40:49.592Z,17.50
2017-08-09T01:43:17.158Z,17.50
2017-08-09T01:45:44.901Z,17.50
2017-08-09T01:48:12.441Z,17.50
2017-08-09T01:50:39.989Z,17.40
2017-08-09T01:53:07.522Z,17.40
2017-08-09T01:55:35.080Z,17.40
2017-08-09T01:58:02.582Z,17.40
2017-08-09T02:00:30.191Z,17.40
2017-08-09T02:02:57.754Z,17.40
2017-08-09T02:05:25.322Z,17.30
2017-08-09T02:07:53.075Z,17.30
2017-08-09T02:10:20.539Z,17.30
2017-08-09T02:12:48.090Z,17.30
2017-08-09T02:15:15.653Z,17.30
2017-08-09T02:17:43.163Z,17.40
2017-08-09T02:20:10.724Z,17.30
2017-08-09T02:22:38.310Z,17.30
2017-08-09T02:25:05.846Z,17.30
2017-08-09T02:27:33.338Z,17.20
2017-08-09T02:30:00.960Z,17.20
2017-08-09T02:32:28.551Z,17.20
2017-08-09T02:34:56.856Z,17.20
2017-08-09T02:37:24.470Z,17.20
2017-08-09T02:39:51.959Z,17.20
2017-08-09T02:42:19.557Z,17.10
2017-08-09T02:44:47.150Z,17.10
2017-08-09T02:47:14.668Z,17.10
2017-08-09T02:49:42.202Z,17.10
2017-08-09T02:52:09.726Z,17.10
2017-08-09T02:54:38.037Z,17.00
2017-08-09T02:57:05.616Z,17.00
2017-08-09T02:59:33.205Z,17.00
2017-08-09T03:02:00.753Z,17.10
2017-08-09T03:04:28.294Z,17.10
2017-08-09T03:06:55.985Z,17.10
2017-08-09T03:09:23.534Z,17.10
2017-08-09T03:11:51.124Z,17.10
2017-08-09T03:14:18.718Z,17.10
2017-08-09T03:16:47.033Z,17.00
2017-08-09T03:19:14.631Z,17.00
2017-08-09T03:21:42.391Z,17.10
2017-08-09T03:24:09.939Z,17.00
2017-08-09T03:26:37.478Z,17.00
2017-08-09T03:29:05.071Z,17.00
2017-08-09T03:31:32.604Z,16.90
2017-08-09T03:34:00.180Z,16.90
2017-08-09T03:36:27.908Z,16.90
2017-08-09T03:38:55.434Z,16.80
2017-08-09T03:41:23.722Z,16.90
2017-08-09T03:43:51.376Z,16.90
2017-08-09T03:46:18.881Z,17.00
2017-08-09T03:48:46.469Z,17.00
2017-08-09T03:51:14.123Z,17.00
2017-08-09T03:53:41.667Z,17.10
2017-08-09T03:56:09.196Z,17.00
2017-08-09T03:58:36.748Z,17.10
2017-08-09T04:01:04.279Z,17.10
2017-08-09T04:03:31.862Z,17.20
2017-08-09T04:06:00.174Z,18.10
2017-08-09T04:08:27.751Z,18.10
2017-08-09T04:10:55.339Z,18.20
2017-08-09T04:13:22.909Z,18.10
2017-08-09T04:15:51.210Z,17.70
2017-08-09T04:18:18.770Z,17.70
2017-08-09T04:20:46.326Z,17.70
2017-08-09T04:23:13.886Z,17.80
2017-08-09T04:25:41.439Z,18.50
2017-08-09T04:28:09.745Z,19.60
2017-08-09T04:30:37.260Z,19.60
2017-08-09T04:33:05.126Z,19.40
2017-08-09T04:35:32.745Z,19.10
2017-08-09T04:38:00.285Z,19.80
2017-08-09T04:40:27.886Z,20.90
2017-08-09T04:42:55.506Z,22.20
2017-08-09T04:45:23.043Z,23.30
2017-08-09T04:47:50.644Z,24.40
2017-08-09T04:50:18.245Z,25.30
2017-08-09T04:52:45.761Z,26.00
2017-08-09T04:55:13.349Z,26.60
2017-08-09T04:57:40.909Z,27.10
2017-08-09T05:00:08.446Z,27.90
2017-08-09T05:02:35.969Z,28.70
2017-08-09T05:05:03.577Z,28.60
2017-08-09T05:07:31.113Z,29.00
2017-08-09T05:09:58.617Z,28.80
2017-08-09T05:12:26.213Z,28.50
2017-08-09T05:14:53.756Z,28.60
2017-08-09T05:17:21.333Z,28.10
2017-08-09T05:19:48.891Z,28.30
2017-08-09T05:22:16.456Z,28.70
2017-08-09T05:24:43.999Z,28.60
2017-08-09T05:27:11.595Z,28.10
2017-08-09T05:29:39.138Z,27.50
2017-08-09T05:32:06.661Z,27.30
2017-08-09T05:34:34.523Z,26.70
2017-08-09T05:37:02.866Z,27.60
2017-08-09T05:39:30.397Z,27.50
2017-08-09T05:41:58.086Z,26.60
2017-08-09T05:44:25.611Z,25.30
2017-08-09T05:46:53.166Z,24.20
2017-08-09T05:49:20.728Z,23.30
2017-08-09T05:51:48.301Z,22.50
2017-08-09T05:54:15.849Z,22.10
2017-08-09T05:56:43.401Z,21.70
2017-08-09T05:59:10.923Z,21.30
2017-08-09T06:01:39.232Z,20.40
2017-08-09T06:04:06.763Z,20.40
2017-08-09T06:06:35.107Z,20.50
2017-08-09T06:09:02.651Z,20.50
2017-08-09T06:11:30.270Z,20.90
2017-08-09T06:13:57.815Z,21.40
2017-08-09T06:16:26.151Z,22.80
2017-08-09T06:18:53.749Z,22.80
2017-08-09T06:21:21.301Z,23.20
2017-08-09T06:23:48.834Z,23.20
2017-08-09T06:26:16.451Z,23.00
2017-08-09T06:28:43.962Z,22.60
2017-08-09T06:31:11.577Z,22.30
2017-08-09T06:33:39.192Z,22.10
2017-08-09T06:36:06.775Z,21.70
2017-08-09T06:38:34.327Z,21.60
2017-08-09T06:41:01.939Z,21.40
2017-08-09T06:43:29.518Z,21.40
2017-08-09T06:45:57.037Z,21.10
2017-08-09T06:48:24.569Z,21.00
2017-08-09T06:50:52.113Z,21.10
2017-08-09T06:53:19.641Z,21.60
2017-08-09T06:55:47.402Z,22.10
2017-08-09T06:58:14.958Z,22.40
2017-08-09T07:00:42.473Z,22.20
2017-08-09T07:03:10.226Z,22.10
2017-08-09T07:05:37.717Z,21.70
2017-08-09T07:08:05.289Z,21.30
2017-08-09T07:10:33.586Z,21.50
2017-08-09T07:13:01.111Z,21.50
2017-08-09T07:15:29.415Z,21.40
2017-08-09T07:17:57.091Z,21.40
2017-08-09T07:20:24.658Z,21.40
2017-08-09T07:22:52.201Z,21.40
2017-08-09T07:25:19.760Z,21.60
2017-08-09T07:27:47.263Z,22.10
2017-08-09T07:30:14.818Z,22.70
2017-08-09T07:32:42.452Z,23.40
2017-08-09T07:35:10.003Z,24.00
2017-08-09T07:37:37.533Z,24.60
2017-08-09T07:40:05.109Z,25.00
2017-08-09T07:42:32.643Z,24.90
2017-08-09T07:45:00.245Z,25.00
2017-08-09T07:47:27.834Z,26.30
2017-08-09T07:49:55.390Z,28.10
2017-08-09T07:52:22.887Z,28.70
2017-08-09T07:54:51.269Z,28.40
2017-08-09T07:57:18.815Z,28.40
2017-08-09T07:59:46.337Z,27.50
2017-08-09T08:02:14.003Z,26.90
2017-08-09T08:04:41.532Z,26.20
2017-08-09T08:07:09.034Z,25.50
2017-08-09T08:09:36.626Z,25.60
2017-08-09T08:12:04.940Z,26.10
2017-08-09T08:14:32.479Z,26.10
2017-08-09T08:17:01.013Z,28.60
2017-08-09T08:19:28.529Z,28.50
2017-08-09T08:21:56.050Z,28.90
2017-08-09T08:24:29.088Z,28.90
2017-08-09T08:26:56.584Z,29.90
2017-08-09T08:29:24.131Z,31.50
2017-08-09T08:31:51.701Z,33.40
2017-08-09T08:34:19.234Z,34.10
2017-08-09T08:36:46.755Z,34.80
2017-08-09T08:39:14.467Z,35.70
2017-08-09T08:41:42.030Z,36.70
2017-08-09T08:44:09.530Z,36.50
2017-08-09T08:46:37.278Z,34.40
2017-08-09T08:49:04.829Z,33.50
2017-08-09T08:51:32.310Z,32.60
2017-08-09T08:53:59.858Z,32.10
2017-08-09T08:56:27.373Z,32.00
2017-08-09T08:58:54.924Z,32.80
2017-08-09T09:01:22.498Z,33.50
2017-08-09T09:03:50.048Z,34.60
2017-08-09T09:06:17.574Z,35.70
2017-08-09T09:08:45.308Z,36.70
2017-08-09T09:11:12.807Z,36.30
2017-08-09T09:13:40.315Z,35.70
2017-08-09T09:16:08.041Z,34.20
2017-08-09T09:18:35.593Z,34.20
2017-08-09T09:21:04.014Z,35.20
2017-08-09T09:23:31.628Z,35.30
2017-08-09T09:25:59.142Z,34.50
2017-08-09T09:28:26.674Z,32.20
2017-08-09T09:30:54.274Z,30.70
2017-08-09T09:33:21.805Z,29.50
2017-08-09T09:35:49.330Z,29.40
2017-08-09T09:38:17.264Z,28.60
2017-08-09T09:40:44.803Z,28.00
2017-08-09T09:43:12.356Z,29.60
2017-08-09T09:45:39.939Z,30.90
2017-08-09T09:48:07.452Z,32.00
2017-08-09T09:50:34.953Z,33.60
2017-08-09T09:53:02.678Z,33.90
2017-08-09T09:55:30.218Z,33.30
2017-08-09T09:57:58.566Z,30.80
2017-08-09T10:00:26.147Z,30.70
2017-08-09T10:02:53.627Z,29.70
2017-08-09T10:05:21.184Z,28.70
2017-08-09T10:07:48.734Z,29.80
2017-08-09T10:10:16.304Z,31.90
2017-08-09T10:12:43.813Z,33.50
2017-08-09T10:15:11.351Z,35.40
2017-08-09T10:17:38.887Z,36.90
2017-08-09T10:20:06.408Z,37.40
2017-08-09T10:22:34.123Z,37.10
2017-08-09T10:25:01.659Z,37.50
2017-08-09T10:27:29.216Z,37.60
2017-08-09T10:29:56.824Z,37.90
2017-08-09T10:32:24.367Z,37.50
2017-08-09T10:34:51.919Z,38.10
2017-08-09T10:37:19.445Z,38.50
2017-08-09T10:39:47.027Z,37.90
2017-08-09T10:42:14.574Z,38.40
2017-08-09T10:44:42.293Z,37.40
2017-08-09T10:47:09.870Z,36.70
2017-08-09T10:49:37.377Z,34.70
2017-08-09T10:52:05.110Z,33.40
2017-08-09T10:54:33.421Z,30.40
2017-08-09T10:57:00.948Z,30.20
2017-08-09T10:59:29.274Z,31.30
2017-08-09T11:01:56.827Z,31.30
2017-08-09T11:04:24.425Z,32.50
2017-08-09T11:06:51.925Z,31.30
2017-08-09T11:09:19.482Z,32.40
2017-08-09T11:11:47.014Z,34.50
2017-08-09T11:14:15.432Z,35.50
2017-08-09T11:16:42.922Z,35.30
2017-08-09T11:19:10.472Z,33.90
2017-08-09T11:21:38.036Z,32.40
2017-08-09T11:24:05.581Z,31.10
2017-08-09T11:26:33.112Z,32.20
2017-08-09T11:29:00.650Z,34.20
2017-08-09T11:31:29.420Z,35.00
2017-08-09T11:33:56.992Z,35.00
2017-08-09T11:36:24.662Z,33.40
2017-08-09T11:38:52.224Z,32.60
2017-08-09T11:41:19.744Z,33.70
2017-08-09T11:43:47.314Z,34.80
2017-08-09T11:46:14.870Z,33.70
2017-08-09T11:48:42.487Z,32.10
2017-08-09T11:51:10.063Z,31.50
2017-08-09T11:53:37.652Z,31.00
2017-08-09T11:56:05.182Z,30.50
2017-08-09T11:58:32.756Z,29.50
2017-08-09T12:01:00.295Z,29.30
2017-08-09T12:03:27.825Z,29.70
2017-08-09T12:05:56.179Z,30.30
2017-08-09T12:08:23.726Z,30.20
2017-08-09T12:10:51.214Z,30.00
2017-08-09T12:13:18.810Z,29.30
2017-08-09T12:15:46.320Z,29.30
2017-08-09T12:18:14.611Z,29.30
2017-08-09T12:20:42.183Z,29.30
2017-08-09T12:23:11.013Z,28.90
2017-08-09T12:25:38.562Z,28.80
2017-08-09T12:28:06.297Z,28.90
2017-08-09T12:30:33.915Z,29.20
2017-08-09T12:33:01.474Z,28.90
2017-08-09T12:35:29.098Z,29.10
2017-08-09T12:37:56.621Z,29.50
2017-08-09T12:40:24.188Z,29.20
2017-08-09T12:42:51.743Z,28.80
2017-08-09T12:45:20.078Z,28.50
2017-08-09T12:47:47.621Z,28.40
2017-08-09T12:50:15.178Z,27.40
2017-08-09T12:52:42.761Z,27.20
2017-08-09T12:55:10.350Z,27.50
2017-08-09T12:57:38.032Z,27.50
2017-08-09T13:00:05.584Z,27.50
2017-08-09T13:02:33.197Z,27.10
2017-08-09T13:05:00.875Z,27.10
2017-08-09T13:07:28.463Z,27.30
2017-08-09T13:09:56.838Z,27.40
2017-08-09T13:12:24.468Z,27.40
2017-08-09T13:14:52.041Z,27.30
2017-08-09T13:17:19.627Z,27.10
2017-08-09T13:19:47.212Z,26.90
2017-08-09T13:22:14.782Z,26.80
2017-08-09T13:24:42.335Z,26.80
2017-08-09T13:27:10.134Z,26.70
2017-08-09T13:29:37.690Z,26.90
2017-08-09T13:32:05.232Z,27.30
2017-08-09T13:34:32.994Z,27.60
2017-08-09T13:37:00.509Z,27.70
2017-08-09T13:39:28.147Z,27.80
2017-08-09T13:41:55.746Z,27.60
2017-08-09T13:44:23.314Z,27.50
2017-08-09T13:46:50.874Z,27.40
2017-08-09T13:49:18.446Z,27.60
2017-08-09T13:51:46.050Z,27.70
2017-08-09T13:54:13.593Z,27.50
2017-08-09T13:56:41.418Z,27.00
2017-08-09T13:59:08.984Z,26.80
2017-08-09T14:01:36.540Z,26.50
2017-08-09T14:04:04.113Z,26.00
2017-08-09T14:06:31.699Z,25.60
2017-08-09T14:08:59.304Z,25.60
2017-08-09T14:11:26.906Z,25.80
2017-08-09T14:13:54.486Z,26.10
2017-08-09T14:16:22.064Z,26.40
2017-08-09T14:18:49.803Z,26.50
2017-08-09T14:21:17.385Z,26.60
2017-08-09T14:23:44.889Z,26.80
2017-08-09T14:26:12.497Z,26.80
2017-08-09T14:28:40.071Z,26.70
2017-08-09T14:31:07.586Z,26.90
2017-08-09T14:33:35.297Z,27.00
2017-08-09T14:36:03.588Z,27.20
2017-08-09T14:38:31.905Z,27.10
2017-08-09T14:40:59.495Z,27.30
2017-08-09T14:43:27.015Z,27.40
2017-08-09T14:45:54.601Z,27.70
2017-08-09T14:48:22.317Z,27.70
2017-08-09T14:50:49.824Z,27.70
2017-08-09T14:53:17.347Z,27.70
2017-08-09T14:55:44.932Z,27.70
2017-08-09T14:58:12.520Z,27.50
2017-08-09T15:00:40.126Z,27.40
2017-08-09T15:03:07.728Z,27.40
2017-08-09T15:05:35.252Z,27.20
2017-08-09T15:08:02.791Z,27.10
2017-08-09T15:10:31.119Z,27.10
2017-08-09T15:12:58.628Z,27.10
2017-08-09T15:15:26.193Z,27.10
2017-08-09T15:17:53.904Z,27.00
2017-08-09T15:20:21.467Z,27.00
2017-08-09T15:22:49.019Z,27.00
2017-08-09T15:25:16.620Z,26.70
2017-08-09T15:27:44.225Z,26.40
2017-08-09T15:30:11.746Z,26.20
2017-08-09T15:32:40.146Z,26.20
2017-08-09T15:35:07.683Z,26.20
2017-08-09T15:37:35.231Z,26.30
2017-08-09T15:40:03.016Z,26.30
2017-08-09T15:42:30.599Z,26.40
2017-08-09T15:44:58.150Z,26.50
2017-08-09T15:47:25.735Z,26.50
2017-08-09T15:49:54.223Z,26.40
2017-08-09T15:52:21.827Z,26.50
2017-08-09T15:54:49.429Z,26.40
2017-08-09T15:57:16.992Z,26.30
2017-08-09T15:59:44.572Z,26.40
2017-08-09T16:02:12.315Z,26.40
2017-08-09T16:04:39.862Z,26.40
2017-08-09T16:07:07.414Z,26.40
2017-08-09T16:09:34.985Z,26.30
2017-08-09T16:12:02.548Z,26.30
2017-08-09T16:14:30.070Z,26.20
2017-08-09T16:16:57.687Z,26.20
2017-08-09T16:19:25.228Z,26.10
2017-08-09T16:21:52.796Z,26.00
2017-08-09T16:24:20.407Z,26.00
2017-08-09T16:26:48.745Z,25.70
2017-08-09T16:29:16.473Z,25.80
2017-08-09T16:31:44.087Z,25.60
2017-08-09T16:34:11.707Z,25.60
2017-08-09T16:36:39.459Z,25.50
2017-08-09T16:39:07.098Z,25.50
2017-08-09T16:41:34.750Z,25.50
2017-08-09T16:44:03.071Z,25.40
2017-08-09T16:46:31.059Z,25.50
2017-08-09T16:48:58.586Z,25.40
2017-08-09T16:51:26.169Z,25.40
2017-08-09T16:53:53.900Z,25.30
2017-08-09T16:56:23.193Z,25.20
2017-08-09T16:58:50.797Z,25.20
2017-08-09T17:01:18.387Z,25.20
2017-08-09T17:03:46.028Z,25.10
2017-08-09T17:06:13.672Z,25.00
2017-08-09T17:08:41.387Z,25.00
2017-08-09T17:11:09.723Z,24.80
2017-08-09T17:13:37.351Z,24.80
2017-08-09T17:16:05.494Z,24.70
2017-08-09T17:18:33.034Z,24.70
2017-08-09T17:21:00.620Z,24.60
2017-08-09T17:23:28.862Z,24.60
2017-08-09T17:25:56.639Z,24.50
2017-08-09T17:28:24.576Z,24.50
2017-08-09T17:30:52.182Z,24.30
2017-08-09T17:33:19.888Z,24.20
2017-08-09T17:35:47.567Z,24.10
2017-08-09T17:38:16.111Z,24.00
2017-08-09T17:40:45.043Z,23.70
2017-08-09T17:43:12.696Z,23.70
2017-08-09T17:45:40.325Z,23.60
2017-08-09T17:48:08.727Z,23.30
2017-08-09T17:50:36.376Z,23.30
2017-08-09T17:53:04.336Z,23.20
2017-08-09T17:55:32.827Z,23.00
2017-08-09T17:58:00.402Z,22.90
2017-08-09T18:00:28.523Z,22.80
2017-08-09T18:02:56.140Z,22.70
2017-08-09T18:05:24.484Z,22.50
2017-08-09T18:07:53.006Z,22.30
2017-08-09T18:10:20.602Z,22.20
2017-08-09T18:12:49.160Z,22.10
2017-08-09T18:15:19.496Z,22.00
2017-08-09T18:17:47.298Z,21.90
2017-08-09T18:20:15.079Z,21.90
2017-08-09T18:22:43.459Z,21.80
2017-08-09T18:25:11.055Z,21.80
2017-08-09T18:27:38.647Z,21.70
2017-08-09T18:30:06.301Z,21.70
2017-08-09T18:32:33.886Z,21.60
2017-08-09T18:35:03.057Z,21.60
2017-08-09T18:37:31.162Z,21.50
2017-08-09T18:39:58.771Z,21.50
2017-08-09T18:42:27.104Z,21.50
2017-08-09T18:44:55.865Z,21.40
2017-08-09T18:47:23.479Z,21.40
2017-08-09T18:49:51.096Z,21.40
2017-08-09T18:52:20.281Z,21.50
2017-08-09T18:54:47.890Z,21.50
2017-08-09T18:57:16.551Z,21.50
2017-08-09T18:59:49.315Z,21.40
2017-08-09T19:02:16.927Z,21.40
2017-08-09T19:04:44.524Z,21.30
2017-08-09T19:07:12.383Z,21.30
2017-08-09T19:09:40.033Z,21.30
2017-08-09T19:12:07.609Z,21.20
2017-08-09T19:14:37.170Z,21.10
2017-08-09T19:17:06.386Z,21.00
2017-08-09T19:19:34.027Z,21.00
2017-08-09T19:22:04.424Z,21.00
2017-08-09T19:24:32.939Z,21.00
2017-08-09T19:27:02.038Z,21.00
2017-08-09T19:29:29.893Z,21.00
2017-08-09T19:31:58.570Z,21.00
2017-08-09T19:34:26.186Z,21.10
2017-08-09T19:36:53.844Z,21.10
2017-08-09T19:39:21.445Z,21.10
2017-08-09T19:41:49.948Z,21.10
2017-08-09T19:44:17.616Z,21.00
2017-08-09T19:46:46.299Z,20.90
2017-08-09T19:49:13.908Z,20.90
2017-08-09T19:51:41.543Z,20.90
2017-08-09T19:54:09.117Z,20.90
2017-08-09T19:56:36.691Z,20.80
2017-08-09T19:59:05.183Z,20.80
2017-08-09T20:01:32.766Z,20.80
2017-08-09T20:04:00.275Z,20.80
2017-08-09T20:06:28.469Z,20.70
2017-08-09T20:08:56.061Z,20.70
2017-08-09T20:11:23.675Z,20.60
2017-08-09T20:13:51.307Z,20.70
2017-08-09T20:16:18.855Z,20.70
2017-08-09T20:18:47.371Z,20.70
2017-08-09T20:21:15.022Z,20.70
2017-08-09T20:23:42.599Z,20.80
2017-08-09T20:26:10.165Z,20.80
2017-08-09T20:28:37.911Z,20.80
2017-08-09T20:31:05.503Z,20.80
2017-08-09T20:33:33.040Z,20.80
2017-08-09T20:36:00.634Z,20.70
2017-08-09T20:38:29.204Z,20.70
2017-08-09T20:40:58.499Z,20.60
2017-08-09T20:43:27.143Z,20.60
2017-08-09T20:45:54.698Z,20.50
2017-08-09T20:48:22.355Z,20.50
2017-08-09T20:50:52.532Z,20.50
2017-08-09T20:53:20.171Z,20.50
2017-08-09T20:55:47.730Z,20.40
2017-08-09T20:58:15.337Z,20.40
2017-08-09T21:00:42.891Z,20.40
2017-08-09T21:03:10.438Z,20.30
2017-08-09T21:05:38.042Z,20.30
2017-08-09T21:08:05.612Z,20.20
2017-08-09T21:10:33.939Z,20.20
2017-08-09T21:13:01.557Z,20.10
2017-08-09T21:15:29.111Z,20.20
2017-08-09T21:17:56.676Z,20.20
2017-08-09T21:20:25.002Z,20.20
2017-08-09T21:22:52.669Z,20.20
2017-08-09T21:25:20.200Z,20.20
2017-08-09T21:27:47.860Z,20.20
2017-08-09T21:30:15.453Z,20.20
2017-08-09T21:32:43.010Z,20.20
2017-08-09T21:35:10.550Z,20.10
2017-08-09T21:37:38.143Z,20.10
2017-08-09T21:40:05.836Z,20.00
2017-08-09T21:42:33.402Z,19.90
2017-08-09T21:45:01.083Z,19.80
2017-08-09T21:47:28.637Z,19.80
2017-08-09T21:49:56.212Z,19.80
2017-08-09T21:52:23.762Z,19.90
2017-08-09T21:54:51.315Z,19.90
2017-08-09T21:57:19.739Z,20.00
2017-08-09T21:59:47.322Z,20.00
2017-08-09T22:02:14.885Z,20.10
2017-08-09T22:04:43.326Z,20.20
2017-08-09T22:07:10.950Z,20.10
2017-08-09T22:09:38.527Z,20.20
2017-08-09T22:12:06.072Z,20.20
2017-08-09T22:14:33.738Z,20.20
2017-08-09T22:17:01.297Z,20.20
2017-08-09T22:19:28.942Z,20.20
2017-08-09T22:24:50.018Z,20.20
2017-08-09T22:27:17.708Z,20.20
2017-08-09T22:29:47.208Z,20.30
2017-08-09T22:32:16.808Z,20.30
2017-08-09T22:35:01.885Z,20.40
2017-08-09T22:37:30.077Z,20.40
2017-08-09T22:40:08.662Z,20.40
2017-08-09T22:42:36.449Z,20.30
2017-08-09T22:45:11.428Z,19.50
2017-08-09T23:07:44.448Z,17.70
2017-08-09T23:10:12.100Z,17.80
2017-08-09T23:12:39.763Z,17.80
2017-08-09T23:15:07.449Z,17.90
2017-08-09T23:17:35.107Z,17.90
2017-08-09T23:20:02.762Z,17.90
2017-08-09T23:22:30.434Z,18.00
2017-08-09T23:25:05.856Z,18.00
2017-08-09T23:27:33.516Z,18.10
2017-08-09T23:30:01.145Z,18.20
2017-08-09T23:32:28.803Z,18.30
2017-08-09T23:37:33.094Z,18.30
2017-08-09T23:40:00.766Z,18.20
2017-08-09T23:42:47.864Z,18.20
2017-08-09T23:45:20.942Z,18.10
2017-08-09T23:47:52.479Z,18.10
2017-08-09T23:50:20.127Z,18.10
2017-08-09T23:52:47.927Z,18.20
2017-08-09T23:55:18.118Z,18.10
2017-08-09T23:57:45.872Z,18.10
